sensor_id;sensor_type;location;lat;lon;timestamp;temperature;humidity
37782;DHT22;23621;50.878;4.584;2023-12-04T00:02:14;9.60;58.70
37782;DHT22;23621;50.878;4.584;2023-12-04T00:05:03;9.60;58.50
37782;DHT22;23621;50.878;4.584;2023-12-04T00:07:51;9.60;58.40
37782;DHT22;23621;50.878;4.584;2023-12-04T00:10:38;9.60;58.30
37782;DHT22;23621;50.878;4.584;2023-12-04T00:13:26;9.60;58.30
37782;DHT22;23621;50.878;4.584;2023-12-04T00:16:13;9.60;58.20
37782;DHT22;23621;50.878;4.584;2023-12-04T00:19:00;9.60;58.10
37782;DHT22;23621;50.878;4.584;2023-12-04T00:21:48;9.60;57.90
37782;DHT22;23621;50.878;4.584;2023-12-04T00:24:35;9.60;57.70
37782;DHT22;23621;50.878;4.584;2023-12-04T00:27:22;9.50;57.50
37782;DHT22;23621;50.878;4.584;2023-12-04T00:30:14;9.60;57.60
37782;DHT22;23621;50.878;4.584;2023-12-04T00:33:01;9.50;57.50
37782;DHT22;23621;50.878;4.584;2023-12-04T00:35:51;9.60;57.60
37782;DHT22;23621;50.878;4.584;2023-12-04T00:38:39;9.60;57.40
37782;DHT22;23621;50.878;4.584;2023-12-04T00:41:26;9.60;57.30
37782;DHT22;23621;50.878;4.584;2023-12-04T00:44:13;9.50;57.10
37782;DHT22;23621;50.878;4.584;2023-12-04T00:47:00;9.50;57.10
37782;DHT22;23621;50.878;4.584;2023-12-04T00:49:48;9.50;57.10
37782;DHT22;23621;50.878;4.584;2023-12-04T00:52:35;9.50;57.00
37782;DHT22;23621;50.878;4.584;2023-12-04T00:55:26;9.50;56.90
37782;DHT22;23621;50.878;4.584;2023-12-04T00:58:14;9.40;56.80
37782;DHT22;23621;50.878;4.584;2023-12-04T01:01:01;9.40;57.00
37782;DHT22;23621;50.878;4.584;2023-12-04T01:03:49;9.40;56.90
37782;DHT22;23621;50.878;4.584;2023-12-04T01:06:36;9.40;56.90
37782;DHT22;23621;50.878;4.584;2023-12-04T01:09:23;9.40;56.90
37782;DHT22;23621;50.878;4.584;2023-12-04T01:12:11;9.40;56.80
37782;DHT22;23621;50.878;4.584;2023-12-04T01:14:58;9.40;56.70
37782;DHT22;23621;50.878;4.584;2023-12-04T01:17:46;9.40;56.70
37782;DHT22;23621;50.878;4.584;2023-12-04T01:20:33;9.40;56.60
37782;DHT22;23621;50.878;4.584;2023-12-04T01:23:21;9.40;56.60
37782;DHT22;23621;50.878;4.584;2023-12-04T01:26:10;9.40;56.50
37782;DHT22;23621;50.878;4.584;2023-12-04T01:28:57;9.40;56.50
37782;DHT22;23621;50.878;4.584;2023-12-04T01:31:45;9.40;56.40
37782;DHT22;23621;50.878;4.584;2023-12-04T01:34:32;9.40;56.40
37782;DHT22;23621;50.878;4.584;2023-12-04T01:37:19;9.40;56.40
37782;DHT22;23621;50.878;4.584;2023-12-04T01:40:07;9.40;56.30
37782;DHT22;23621;50.878;4.584;2023-12-04T01:42:56;9.40;56.30
37782;DHT22;23621;50.878;4.584;2023-12-04T01:45:43;9.40;56.30
37782;DHT22;23621;50.878;4.584;2023-12-04T01:48:32;9.40;56.30
37782;DHT22;23621;50.878;4.584;2023-12-04T01:51:20;9.40;56.10
37782;DHT22;23621;50.878;4.584;2023-12-04T01:54:08;9.40;56.20
37782;DHT22;23621;50.878;4.584;2023-12-04T01:56:55;9.30;56.10
37782;DHT22;23621;50.878;4.584;2023-12-04T01:59:43;9.30;56.20
37782;DHT22;23621;50.878;4.584;2023-12-04T02:02:31;9.20;56.20
37782;DHT22;23621;50.878;4.584;2023-12-04T02:05:19;9.20;56.30
37782;DHT22;23621;50.878;4.584;2023-12-04T02:08:08;9.20;56.40
37782;DHT22;23621;50.878;4.584;2023-12-04T02:10:56;9.10;56.40
37782;DHT22;23621;50.878;4.584;2023-12-04T02:13:43;9.10;56.50
37782;DHT22;23621;50.878;4.584;2023-12-04T02:16:31;9.10;56.60
37782;DHT22;23621;50.878;4.584;2023-12-04T02:19:23;9.10;56.70
37782;DHT22;23621;50.878;4.584;2023-12-04T02:22:11;9.10;56.80
37782;DHT22;23621;50.878;4.584;2023-12-04T02:25:01;9.10;56.80
37782;DHT22;23621;50.878;4.584;2023-12-04T02:27:50;9.10;56.90
37782;DHT22;23621;50.878;4.584;2023-12-04T02:30:38;9.10;57.00
37782;DHT22;23621;50.878;4.584;2023-12-04T02:33:27;9.10;57.00
37782;DHT22;23621;50.878;4.584;2023-12-04T02:36:17;9.10;57.00
37782;DHT22;23621;50.878;4.584;2023-12-04T02:39:04;9.10;57.00
37782;DHT22;23621;50.878;4.584;2023-12-04T02:41:52;9.10;57.70
37782;DHT22;23621;50.878;4.584;2023-12-04T02:44:39;9.10;57.00
37782;DHT22;23621;50.878;4.584;2023-12-04T02:47:27;9.10;57.00
37782;DHT22;23621;50.878;4.584;2023-12-04T02:50:14;9.10;57.00
37782;DHT22;23621;50.878;4.584;2023-12-04T02:53:01;9.20;57.10
37782;DHT22;23621;50.878;4.584;2023-12-04T02:55:49;9.20;57.00
37782;DHT22;23621;50.878;4.584;2023-12-04T02:58:36;9.20;57.10
37782;DHT22;23621;50.878;4.584;2023-12-04T03:01:23;9.10;57.00
37782;DHT22;23621;50.878;4.584;2023-12-04T03:04:11;9.10;57.00
37782;DHT22;23621;50.878;4.584;2023-12-04T03:06:58;9.10;57.00
37782;DHT22;23621;50.878;4.584;2023-12-04T03:09:46;9.00;56.90
37782;DHT22;23621;50.878;4.584;2023-12-04T03:12:36;9.00;57.10
37782;DHT22;23621;50.878;4.584;2023-12-04T03:15:23;9.10;57.10
37782;DHT22;23621;50.878;4.584;2023-12-04T03:18:10;9.00;57.00
37782;DHT22;23621;50.878;4.584;2023-12-04T03:20:59;9.00;57.00
37782;DHT22;23621;50.878;4.584;2023-12-04T03:23:46;9.00;57.10
37782;DHT22;23621;50.878;4.584;2023-12-04T03:26:33;9.00;57.20
37782;DHT22;23621;50.878;4.584;2023-12-04T03:29:20;9.10;57.40
37782;DHT22;23621;50.878;4.584;2023-12-04T03:32:08;9.10;57.30
37782;DHT22;23621;50.878;4.584;2023-12-04T03:34:55;9.10;57.30
37782;DHT22;23621;50.878;4.584;2023-12-04T03:37:42;9.20;57.40
37782;DHT22;23621;50.878;4.584;2023-12-04T03:40:30;9.20;57.40
37782;DHT22;23621;50.878;4.584;2023-12-04T03:43:17;9.10;57.40
37782;DHT22;23621;50.878;4.584;2023-12-04T03:46:04;9.20;57.50
37782;DHT22;23621;50.878;4.584;2023-12-04T03:48:52;9.20;57.60
37782;DHT22;23621;50.878;4.584;2023-12-04T03:51:39;9.20;57.60
37782;DHT22;23621;50.878;4.584;2023-12-04T03:54:26;9.20;57.50
37782;DHT22;23621;50.878;4.584;2023-12-04T03:57:14;9.30;57.50
37782;DHT22;23621;50.878;4.584;2023-12-04T04:00:01;9.30;57.40
37782;DHT22;23621;50.878;4.584;2023-12-04T04:02:49;9.30;57.40
37782;DHT22;23621;50.878;4.584;2023-12-04T04:05:36;9.30;57.30
37782;DHT22;23621;50.878;4.584;2023-12-04T04:08:24;9.30;57.30
37782;DHT22;23621;50.878;4.584;2023-12-04T04:11:11;9.40;57.30
37782;DHT22;23621;50.878;4.584;2023-12-04T04:13:58;9.30;57.10
37782;DHT22;23621;50.878;4.584;2023-12-04T04:16:46;9.40;57.10
37782;DHT22;23621;50.878;4.584;2023-12-04T04:19:33;9.40;57.00
37782;DHT22;23621;50.878;4.584;2023-12-04T04:22:21;9.40;57.00
37782;DHT22;23621;50.878;4.584;2023-12-04T04:25:09;9.40;57.00
37782;DHT22;23621;50.878;4.584;2023-12-04T04:27:57;9.40;57.00
37782;DHT22;23621;50.878;4.584;2023-12-04T04:30:44;9.30;56.90
37782;DHT22;23621;50.878;4.584;2023-12-04T04:33:31;9.30;56.80
37782;DHT22;23621;50.878;4.584;2023-12-04T04:36:19;9.30;56.70
37782;DHT22;23621;50.878;4.584;2023-12-04T04:39:06;9.30;56.70
37782;DHT22;23621;50.878;4.584;2023-12-04T04:41:53;9.30;56.60
37782;DHT22;23621;50.878;4.584;2023-12-04T04:44:41;9.30;56.40
37782;DHT22;23621;50.878;4.584;2023-12-04T04:47:28;9.30;56.40
37782;DHT22;23621;50.878;4.584;2023-12-04T04:50:15;9.30;56.30
37782;DHT22;23621;50.878;4.584;2023-12-04T04:53:03;9.30;56.30
37782;DHT22;23621;50.878;4.584;2023-12-04T04:55:50;9.30;56.40
37782;DHT22;23621;50.878;4.584;2023-12-04T04:58:37;9.30;56.30
37782;DHT22;23621;50.878;4.584;2023-12-04T05:01:25;9.30;56.10
37782;DHT22;23621;50.878;4.584;2023-12-04T05:04:12;9.30;56.00
37782;DHT22;23621;50.878;4.584;2023-12-04T05:06:59;9.30;55.70
37782;DHT22;23621;50.878;4.584;2023-12-04T05:09:47;9.40;55.70
37782;DHT22;23621;50.878;4.584;2023-12-04T05:12:35;9.40;55.40
37782;DHT22;23621;50.878;4.584;2023-12-04T05:15:22;9.40;55.30
37782;DHT22;23621;50.878;4.584;2023-12-04T05:18:09;9.40;55.00
37782;DHT22;23621;50.878;4.584;2023-12-04T05:20:57;9.50;55.00
37782;DHT22;23621;50.878;4.584;2023-12-04T05:23:44;9.40;54.80
37782;DHT22;23621;50.878;4.584;2023-12-04T05:26:31;9.40;54.70
37782;DHT22;23621;50.878;4.584;2023-12-04T05:29:19;9.40;54.60
37782;DHT22;23621;50.878;4.584;2023-12-04T05:32:06;9.40;54.70
37782;DHT22;23621;50.878;4.584;2023-12-04T05:34:53;9.40;55.20
37782;DHT22;23621;50.878;4.584;2023-12-04T05:37:40;9.40;54.60
37782;DHT22;23621;50.878;4.584;2023-12-04T05:40:28;9.50;54.60
37782;DHT22;23621;50.878;4.584;2023-12-04T05:43:15;9.60;54.50
37782;DHT22;23621;50.878;4.584;2023-12-04T05:46:03;9.60;54.40
37782;DHT22;23621;50.878;4.584;2023-12-04T05:48:50;9.60;54.30
37782;DHT22;23621;50.878;4.584;2023-12-04T05:51:41;9.60;54.20
37782;DHT22;23621;50.878;4.584;2023-12-04T05:54:28;9.60;54.10
37782;DHT22;23621;50.878;4.584;2023-12-04T05:57:15;9.60;54.00
37782;DHT22;23621;50.878;4.584;2023-12-04T06:00:04;9.60;54.20
37782;DHT22;23621;50.878;4.584;2023-12-04T06:02:52;9.60;54.60
37782;DHT22;23621;50.878;4.584;2023-12-04T06:05:40;9.60;54.60
37782;DHT22;23621;50.878;4.584;2023-12-04T06:08:27;9.60;54.60
37782;DHT22;23621;50.878;4.584;2023-12-04T06:11:14;9.60;54.70
37782;DHT22;23621;50.878;4.584;2023-12-04T06:14:01;9.60;54.80
37782;DHT22;23621;50.878;4.584;2023-12-04T06:16:49;9.60;54.90
37782;DHT22;23621;50.878;4.584;2023-12-04T06:19:36;9.60;54.80
37782;DHT22;23621;50.878;4.584;2023-12-04T06:22:24;9.50;54.70
37782;DHT22;23621;50.878;4.584;2023-12-04T06:25:11;9.60;54.90
37782;DHT22;23621;50.878;4.584;2023-12-04T06:27:59;9.60;54.50
37782;DHT22;23621;50.878;4.584;2023-12-04T06:30:50;9.60;54.50
37782;DHT22;23621;50.878;4.584;2023-12-04T06:33:37;9.70;54.40
37782;DHT22;23621;50.878;4.584;2023-12-04T06:36:25;9.70;54.30
37782;DHT22;23621;50.878;4.584;2023-12-04T06:39:16;9.70;54.20
37782;DHT22;23621;50.878;4.584;2023-12-04T06:42:05;9.70;54.10
37782;DHT22;23621;50.878;4.584;2023-12-04T06:44:53;9.70;54.10
37782;DHT22;23621;50.878;4.584;2023-12-04T06:47:40;9.70;54.10
37782;DHT22;23621;50.878;4.584;2023-12-04T06:50:30;9.70;54.00
37782;DHT22;23621;50.878;4.584;2023-12-04T06:53:17;9.70;54.00
37782;DHT22;23621;50.878;4.584;2023-12-04T06:56:05;9.80;54.10
37782;DHT22;23621;50.878;4.584;2023-12-04T06:58:52;9.80;54.30
37782;DHT22;23621;50.878;4.584;2023-12-04T07:01:40;9.80;54.20
37782;DHT22;23621;50.878;4.584;2023-12-04T07:04:27;9.80;54.10
37782;DHT22;23621;50.878;4.584;2023-12-04T07:07:14;9.80;54.20
37782;DHT22;23621;50.878;4.584;2023-12-04T07:10:02;9.80;54.30
37782;DHT22;23621;50.878;4.584;2023-12-04T07:12:49;9.80;54.30
37782;DHT22;23621;50.878;4.584;2023-12-04T07:15:37;9.80;54.30
37782;DHT22;23621;50.878;4.584;2023-12-04T07:18:24;9.80;54.30
37782;DHT22;23621;50.878;4.584;2023-12-04T07:21:11;9.90;54.40
37782;DHT22;23621;50.878;4.584;2023-12-04T07:23:59;9.90;54.60
37782;DHT22;23621;50.878;4.584;2023-12-04T07:26:46;9.90;54.60
37782;DHT22;23621;50.878;4.584;2023-12-04T07:29:33;9.90;54.60
37782;DHT22;23621;50.878;4.584;2023-12-04T07:32:20;9.90;54.70
37782;DHT22;23621;50.878;4.584;2023-12-04T07:35:08;9.90;54.70
37782;DHT22;23621;50.878;4.584;2023-12-04T07:37:55;9.80;54.70
37782;DHT22;23621;50.878;4.584;2023-12-04T07:40:42;9.80;54.80
37782;DHT22;23621;50.878;4.584;2023-12-04T07:43:30;9.80;54.90
37782;DHT22;23621;50.878;4.584;2023-12-04T07:46:17;9.90;55.20
37782;DHT22;23621;50.878;4.584;2023-12-04T07:49:04;9.90;55.20
37782;DHT22;23621;50.878;4.584;2023-12-04T07:51:51;9.90;55.30
37782;DHT22;23621;50.878;4.584;2023-12-04T07:54:39;9.90;55.40
37782;DHT22;23621;50.878;4.584;2023-12-04T07:57:27;10.00;54.60
37782;DHT22;23621;50.878;4.584;2023-12-04T08:00:14;10.00;54.60
37782;DHT22;23621;50.878;4.584;2023-12-04T08:03:02;10.00;54.70
37782;DHT22;23621;50.878;4.584;2023-12-04T08:05:50;10.00;54.50
37782;DHT22;23621;50.878;4.584;2023-12-04T08:08:38;10.00;54.50
37782;DHT22;23621;50.878;4.584;2023-12-04T08:11:25;10.00;54.50
37782;DHT22;23621;50.878;4.584;2023-12-04T08:14:12;10.00;54.50
37782;DHT22;23621;50.878;4.584;2023-12-04T08:17:00;10.00;54.50
37782;DHT22;23621;50.878;4.584;2023-12-04T08:19:47;9.90;55.30
37782;DHT22;23621;50.878;4.584;2023-12-04T08:22:40;9.90;55.30
37782;DHT22;23621;50.878;4.584;2023-12-04T08:25:28;9.90;55.40
37782;DHT22;23621;50.878;4.584;2023-12-04T08:28:15;10.00;54.70
37782;DHT22;23621;50.878;4.584;2023-12-04T08:31:03;10.00;54.70
37782;DHT22;23621;50.878;4.584;2023-12-04T08:33:50;10.00;54.80
37782;DHT22;23621;50.878;4.584;2023-12-04T08:36:38;10.00;54.80
37782;DHT22;23621;50.878;4.584;2023-12-04T08:39:32;10.00;55.00
37782;DHT22;23621;50.878;4.584;2023-12-04T08:42:20;10.00;55.00
37782;DHT22;23621;50.878;4.584;2023-12-04T08:45:10;10.00;55.20
37782;DHT22;23621;50.878;4.584;2023-12-04T08:47:58;10.10;55.30
37782;DHT22;23621;50.878;4.584;2023-12-04T08:50:45;10.10;55.20
37782;DHT22;23621;50.878;4.584;2023-12-04T08:53:32;10.10;55.30
37782;DHT22;23621;50.878;4.584;2023-12-04T08:56:19;10.10;55.40
37782;DHT22;23621;50.878;4.584;2023-12-04T08:59:17;10.10;55.50
37782;DHT22;23621;50.878;4.584;2023-12-04T09:02:04;10.10;55.70
37782;DHT22;23621;50.878;4.584;2023-12-04T09:04:51;10.10;55.80
37782;DHT22;23621;50.878;4.584;2023-12-04T09:07:39;10.10;56.00
37782;DHT22;23621;50.878;4.584;2023-12-04T09:10:46;10.10;56.20
37782;DHT22;23621;50.878;4.584;2023-12-04T09:13:54;10.10;56.40
37782;DHT22;23621;50.878;4.584;2023-12-04T09:16:42;10.00;56.60
37782;DHT22;23621;50.878;4.584;2023-12-04T09:19:29;10.00;57.00
37782;DHT22;23621;50.878;4.584;2023-12-04T09:22:17;10.00;57.10
37782;DHT22;23621;50.878;4.584;2023-12-04T09:25:07;10.00;57.40
37782;DHT22;23621;50.878;4.584;2023-12-04T09:27:57;10.00;57.70
37782;DHT22;23621;50.878;4.584;2023-12-04T09:30:45;10.00;57.80
37782;DHT22;23621;50.878;4.584;2023-12-04T09:33:32;10.10;57.90
37782;DHT22;23621;50.878;4.584;2023-12-04T09:36:19;10.10;58.60
37782;DHT22;23621;50.878;4.584;2023-12-04T09:39:07;10.10;58.00
37782;DHT22;23621;50.878;4.584;2023-12-04T09:41:55;10.10;58.80
37782;DHT22;23621;50.878;4.584;2023-12-04T09:44:42;10.20;58.30
37782;DHT22;23621;50.878;4.584;2023-12-04T09:47:30;10.30;58.50
37782;DHT22;23621;50.878;4.584;2023-12-04T09:50:19;10.20;58.70
37782;DHT22;23621;50.878;4.584;2023-12-04T09:53:10;10.20;58.80
37782;DHT22;23621;50.878;4.584;2023-12-04T09:55:59;10.30;59.00
37782;DHT22;23621;50.878;4.584;2023-12-04T09:58:58;10.20;59.10
37782;DHT22;23621;50.878;4.584;2023-12-04T10:01:47;10.20;59.20
37782;DHT22;23621;50.878;4.584;2023-12-04T10:04:35;10.20;59.40
37782;DHT22;23621;50.878;4.584;2023-12-04T10:07:22;10.10;59.40
37782;DHT22;23621;50.878;4.584;2023-12-04T10:10:10;10.10;59.70
37782;DHT22;23621;50.878;4.584;2023-12-04T10:12:58;10.10;59.90
37782;DHT22;23621;50.878;4.584;2023-12-04T10:15:50;10.10;60.30
37782;DHT22;23621;50.878;4.584;2023-12-04T10:18:38;10.10;60.60
37782;DHT22;23621;50.878;4.584;2023-12-04T10:21:32;10.10;60.80
37782;DHT22;23621;50.878;4.584;2023-12-04T10:24:30;10.10;61.20
37782;DHT22;23621;50.878;4.584;2023-12-04T10:27:18;10.10;61.40
37782;DHT22;23621;50.878;4.584;2023-12-04T10:30:29;10.00;61.50
37782;DHT22;23621;50.878;4.584;2023-12-04T10:33:18;10.00;62.00
37782;DHT22;23621;50.878;4.584;2023-12-04T10:36:11;10.00;62.20
37782;DHT22;23621;50.878;4.584;2023-12-04T10:39:00;10.10;62.50
37782;DHT22;23621;50.878;4.584;2023-12-04T10:41:59;10.10;62.60
37782;DHT22;23621;50.878;4.584;2023-12-04T10:44:48;10.20;63.10
37782;DHT22;23621;50.878;4.584;2023-12-04T10:47:36;10.30;63.20
37782;DHT22;23621;50.878;4.584;2023-12-04T10:50:23;10.30;63.20
37782;DHT22;23621;50.878;4.584;2023-12-04T10:53:12;10.40;63.40
37782;DHT22;23621;50.878;4.584;2023-12-04T10:56:00;10.40;63.50
37782;DHT22;23621;50.878;4.584;2023-12-04T10:58:51;10.40;63.70
37782;DHT22;23621;50.878;4.584;2023-12-04T11:01:42;10.40;63.60
37782;DHT22;23621;50.878;4.584;2023-12-04T11:04:35;10.40;63.60
37782;DHT22;23621;50.878;4.584;2023-12-04T11:07:24;10.40;63.70
37782;DHT22;23621;50.878;4.584;2023-12-04T11:10:15;10.40;63.90
37782;DHT22;23621;50.878;4.584;2023-12-04T11:13:10;10.40;63.90
37782;DHT22;23621;50.878;4.584;2023-12-04T11:16:03;10.40;64.00
37782;DHT22;23621;50.878;4.584;2023-12-04T11:19:02;10.40;64.10
37782;DHT22;23621;50.878;4.584;2023-12-04T11:21:53;10.40;64.20
37782;DHT22;23621;50.878;4.584;2023-12-04T11:24:41;10.50;64.30
37782;DHT22;23621;50.878;4.584;2023-12-04T11:27:28;10.60;64.40
37782;DHT22;23621;50.878;4.584;2023-12-04T11:30:16;10.60;64.30
37782;DHT22;23621;50.878;4.584;2023-12-04T11:33:05;10.60;64.40
37782;DHT22;23621;50.878;4.584;2023-12-04T11:35:52;10.60;64.40
37782;DHT22;23621;50.878;4.584;2023-12-04T11:38:44;10.60;64.40
37782;DHT22;23621;50.878;4.584;2023-12-04T11:41:35;10.60;64.50
37782;DHT22;23621;50.878;4.584;2023-12-04T11:44:23;10.60;64.50
37782;DHT22;23621;50.878;4.584;2023-12-04T11:47:17;10.60;64.40
37782;DHT22;23621;50.878;4.584;2023-12-04T11:50:04;10.50;64.30
37782;DHT22;23621;50.878;4.584;2023-12-04T11:52:52;10.50;64.30
37782;DHT22;23621;50.878;4.584;2023-12-04T11:55:41;10.50;64.40
37782;DHT22;23621;50.878;4.584;2023-12-04T11:58:29;10.50;64.50
37782;DHT22;23621;50.878;4.584;2023-12-04T12:01:20;10.50;64.50
37782;DHT22;23621;50.878;4.584;2023-12-04T12:04:07;10.60;64.60
37782;DHT22;23621;50.878;4.584;2023-12-04T12:06:58;10.50;64.50
37782;DHT22;23621;50.878;4.584;2023-12-04T12:09:45;10.50;64.50
37782;DHT22;23621;50.878;4.584;2023-12-04T12:12:34;10.50;64.50
37782;DHT22;23621;50.878;4.584;2023-12-04T12:15:23;10.40;64.60
37782;DHT22;23621;50.878;4.584;2023-12-04T12:18:10;10.50;64.70
37782;DHT22;23621;50.878;4.584;2023-12-04T12:20:58;10.50;64.60
37782;DHT22;23621;50.878;4.584;2023-12-04T12:23:46;10.40;64.60
37782;DHT22;23621;50.878;4.584;2023-12-04T12:26:33;10.50;64.70
37782;DHT22;23621;50.878;4.584;2023-12-04T12:29:20;10.50;64.70
37782;DHT22;23621;50.878;4.584;2023-12-04T12:32:08;10.50;64.70
37782;DHT22;23621;50.878;4.584;2023-12-04T12:34:55;10.50;64.70
37782;DHT22;23621;50.878;4.584;2023-12-04T12:37:42;10.50;64.80
37782;DHT22;23621;50.878;4.584;2023-12-04T12:40:30;10.60;64.80
37782;DHT22;23621;50.878;4.584;2023-12-04T12:43:20;10.60;64.80
37782;DHT22;23621;50.878;4.584;2023-12-04T12:46:11;10.70;64.90
37782;DHT22;23621;50.878;4.584;2023-12-04T12:48:58;10.70;64.90
37782;DHT22;23621;50.878;4.584;2023-12-04T12:51:46;10.70;64.80
37782;DHT22;23621;50.878;4.584;2023-12-04T12:54:33;10.70;64.90
37782;DHT22;23621;50.878;4.584;2023-12-04T12:57:21;10.70;64.90
37782;DHT22;23621;50.878;4.584;2023-12-04T13:00:08;10.80;65.00
37782;DHT22;23621;50.878;4.584;2023-12-04T13:02:57;10.80;65.10
37782;DHT22;23621;50.878;4.584;2023-12-04T13:05:44;10.80;65.10
37782;DHT22;23621;50.878;4.584;2023-12-04T13:08:32;10.90;65.20
37782;DHT22;23621;50.878;4.584;2023-12-04T13:11:19;10.90;65.20
37782;DHT22;23621;50.878;4.584;2023-12-04T13:14:06;10.90;65.30
37782;DHT22;23621;50.878;4.584;2023-12-04T13:16:53;10.90;65.30
37782;DHT22;23621;50.878;4.584;2023-12-04T13:19:41;10.90;65.40
37782;DHT22;23621;50.878;4.584;2023-12-04T13:22:29;10.90;65.50
37782;DHT22;23621;50.878;4.584;2023-12-04T13:25:16;10.90;65.70
37782;DHT22;23621;50.878;4.584;2023-12-04T13:28:04;10.90;65.90
37782;DHT22;23621;50.878;4.584;2023-12-04T13:30:53;10.90;66.00
37782;DHT22;23621;50.878;4.584;2023-12-04T13:33:42;10.90;66.10
37782;DHT22;23621;50.878;4.584;2023-12-04T13:36:30;10.90;66.10
37782;DHT22;23621;50.878;4.584;2023-12-04T13:39:17;10.90;66.30
37782;DHT22;23621;50.878;4.584;2023-12-04T13:42:10;11.00;66.50
37782;DHT22;23621;50.878;4.584;2023-12-04T13:45:16;11.00;66.60
37782;DHT22;23621;50.878;4.584;2023-12-04T13:48:03;11.00;66.50
37782;DHT22;23621;50.878;4.584;2023-12-04T13:50:50;11.00;66.60
37782;DHT22;23621;50.878;4.584;2023-12-04T13:53:39;11.10;66.80
37782;DHT22;23621;50.878;4.584;2023-12-04T13:56:31;11.10;66.90
37782;DHT22;23621;50.878;4.584;2023-12-04T13:59:31;11.10;67.00
37782;DHT22;23621;50.878;4.584;2023-12-04T14:02:22;11.10;67.00
37782;DHT22;23621;50.878;4.584;2023-12-04T14:05:10;11.10;67.20
37782;DHT22;23621;50.878;4.584;2023-12-04T14:08:03;11.10;67.20
37782;DHT22;23621;50.878;4.584;2023-12-04T14:10:52;11.10;67.40
37782;DHT22;23621;50.878;4.584;2023-12-04T14:13:39;11.10;67.60
37782;DHT22;23621;50.878;4.584;2023-12-04T14:16:28;11.10;67.70
37782;DHT22;23621;50.878;4.584;2023-12-04T14:19:15;11.10;67.70
37782;DHT22;23621;50.878;4.584;2023-12-04T14:22:05;11.10;67.80
37782;DHT22;23621;50.878;4.584;2023-12-04T14:24:52;11.20;67.90
37782;DHT22;23621;50.878;4.584;2023-12-04T14:27:40;11.20;67.90
37782;DHT22;23621;50.878;4.584;2023-12-04T14:30:29;11.20;68.10
37782;DHT22;23621;50.878;4.584;2023-12-04T14:33:17;11.10;68.20
37782;DHT22;23621;50.878;4.584;2023-12-04T14:36:05;11.20;68.30
37782;DHT22;23621;50.878;4.584;2023-12-04T14:38:52;11.10;68.50
37782;DHT22;23621;50.878;4.584;2023-12-04T14:41:40;11.10;68.70
37782;DHT22;23621;50.878;4.584;2023-12-04T14:44:28;11.10;68.80
37782;DHT22;23621;50.878;4.584;2023-12-04T14:47:15;11.10;68.90
37782;DHT22;23621;50.878;4.584;2023-12-04T14:50:03;11.00;69.00
37782;DHT22;23621;50.878;4.584;2023-12-04T14:52:51;11.10;69.00
37782;DHT22;23621;50.878;4.584;2023-12-04T14:55:39;11.10;69.00
37782;DHT22;23621;50.878;4.584;2023-12-04T14:58:50;11.20;69.10
37782;DHT22;23621;50.878;4.584;2023-12-04T15:01:52;11.20;69.00
37782;DHT22;23621;50.878;4.584;2023-12-04T15:04:45;11.20;69.20
37782;DHT22;23621;50.878;4.584;2023-12-04T15:07:35;11.10;69.10
37782;DHT22;23621;50.878;4.584;2023-12-04T15:11:01;11.10;69.20
37782;DHT22;23621;50.878;4.584;2023-12-04T15:14:07;11.20;69.40
37782;DHT22;23621;50.878;4.584;2023-12-04T15:17:13;11.20;69.50
37782;DHT22;23621;50.878;4.584;2023-12-04T15:20:30;11.20;69.50
37782;DHT22;23621;50.878;4.584;2023-12-04T15:23:18;11.20;69.60
37782;DHT22;23621;50.878;4.584;2023-12-04T15:26:06;11.20;69.70
37782;DHT22;23621;50.878;4.584;2023-12-04T15:28:53;11.30;69.70
37782;DHT22;23621;50.878;4.584;2023-12-04T15:31:40;11.30;69.90
37782;DHT22;23621;50.878;4.584;2023-12-04T15:34:28;11.30;70.00
37782;DHT22;23621;50.878;4.584;2023-12-04T15:37:15;11.30;70.10
37782;DHT22;23621;50.878;4.584;2023-12-04T15:40:03;11.20;70.10
37782;DHT22;23621;50.878;4.584;2023-12-04T15:42:51;11.20;70.30
37782;DHT22;23621;50.878;4.584;2023-12-04T15:45:39;11.20;70.30
37782;DHT22;23621;50.878;4.584;2023-12-04T15:48:26;11.20;70.40
37782;DHT22;23621;50.878;4.584;2023-12-04T15:51:14;11.20;70.50
37782;DHT22;23621;50.878;4.584;2023-12-04T15:54:01;11.20;70.60
37782;DHT22;23621;50.878;4.584;2023-12-04T15:56:49;11.20;70.80
37782;DHT22;23621;50.878;4.584;2023-12-04T15:59:36;11.20;70.60
37782;DHT22;23621;50.878;4.584;2023-12-04T16:02:23;11.10;70.70
37782;DHT22;23621;50.878;4.584;2023-12-04T16:05:11;11.10;70.70
37782;DHT22;23621;50.878;4.584;2023-12-04T16:07:59;11.00;70.90
37782;DHT22;23621;50.878;4.584;2023-12-04T16:10:47;11.00;71.00
37782;DHT22;23621;50.878;4.584;2023-12-04T16:13:35;11.00;71.20
37782;DHT22;23621;50.878;4.584;2023-12-04T16:16:23;11.00;71.00
37782;DHT22;23621;50.878;4.584;2023-12-04T16:19:10;11.10;71.10
37782;DHT22;23621;50.878;4.584;2023-12-04T16:21:58;11.10;71.00
37782;DHT22;23621;50.878;4.584;2023-12-04T16:24:45;11.10;71.00
37782;DHT22;23621;50.878;4.584;2023-12-04T16:27:33;11.10;71.10
37782;DHT22;23621;50.878;4.584;2023-12-04T16:30:20;11.20;71.20
37782;DHT22;23621;50.878;4.584;2023-12-04T16:33:08;11.20;71.20
37782;DHT22;23621;50.878;4.584;2023-12-04T16:35:56;11.20;71.10
37782;DHT22;23621;50.878;4.584;2023-12-04T16:38:44;11.20;71.00
37782;DHT22;23621;50.878;4.584;2023-12-04T16:41:31;11.20;71.00
37782;DHT22;23621;50.878;4.584;2023-12-04T16:44:18;11.30;71.00
37782;DHT22;23621;50.878;4.584;2023-12-04T16:47:05;11.30;71.00
37782;DHT22;23621;50.878;4.584;2023-12-04T16:49:53;11.30;71.00
37782;DHT22;23621;50.878;4.584;2023-12-04T16:52:40;11.30;71.20
37782;DHT22;23621;50.878;4.584;2023-12-04T16:55:27;11.30;71.10
37782;DHT22;23621;50.878;4.584;2023-12-04T16:58:15;11.30;71.00
37782;DHT22;23621;50.878;4.584;2023-12-04T17:01:02;11.30;71.00
37782;DHT22;23621;50.878;4.584;2023-12-04T17:03:50;11.30;71.00
37782;DHT22;23621;50.878;4.584;2023-12-04T17:06:39;11.30;71.00
37782;DHT22;23621;50.878;4.584;2023-12-04T17:09:26;11.30;71.20
37782;DHT22;23621;50.878;4.584;2023-12-04T17:12:14;11.40;71.20
37782;DHT22;23621;50.878;4.584;2023-12-04T17:15:03;11.40;71.10
37782;DHT22;23621;50.878;4.584;2023-12-04T17:17:51;11.40;71.10
37782;DHT22;23621;50.878;4.584;2023-12-04T17:20:39;11.40;71.20
37782;DHT22;23621;50.878;4.584;2023-12-04T17:23:27;11.40;71.20
37782;DHT22;23621;50.878;4.584;2023-12-04T17:26:15;11.40;71.20
37782;DHT22;23621;50.878;4.584;2023-12-04T17:29:02;11.40;71.10
37782;DHT22;23621;50.878;4.584;2023-12-04T17:31:49;11.40;71.30
37782;DHT22;23621;50.878;4.584;2023-12-04T17:34:37;11.50;71.30
37782;DHT22;23621;50.878;4.584;2023-12-04T17:37:25;11.50;71.20
37782;DHT22;23621;50.878;4.584;2023-12-04T17:40:13;11.60;71.20
37782;DHT22;23621;50.878;4.584;2023-12-04T17:43:01;11.50;71.20
37782;DHT22;23621;50.878;4.584;2023-12-04T17:45:48;11.50;71.30
37782;DHT22;23621;50.878;4.584;2023-12-04T17:48:35;11.50;71.30
37782;DHT22;23621;50.878;4.584;2023-12-04T17:51:24;11.50;71.40
37782;DHT22;23621;50.878;4.584;2023-12-04T17:54:13;11.50;71.40